Weather

Current Metar report

KALM 140535Z AUTO 20006KT 10SM FEW046 FEW050 14/M02 A2993 RMK AO2


Metar history is on Flightaware.

KALM AWOS Info
Phone Number: 575-439-4112
Freq: 127.825 MHz

KALM Weather Links

Soaring Forecasts Links